createdAt,value
2022-12-18T00:12:42.764Z,101.80
2022-12-18T00:32:42.495Z,75.80
2022-12-18T00:52:42.263Z,74.50
2022-12-18T01:12:42.005Z,88.10
2022-12-18T01:32:41.723Z,79.70
2022-12-18T01:52:41.441Z,82.80
2022-12-18T02:12:41.252Z,60.70
2022-12-18T02:32:40.961Z,89.00
2022-12-18T02:52:40.703Z,52.80
2022-12-18T03:12:40.435Z,60.10
2022-12-18T03:32:40.179Z,47.90
2022-12-18T03:52:39.956Z,55.70
2022-12-18T04:12:39.630Z,62.80
2022-12-18T04:32:39.418Z,38.10
2022-12-18T04:52:39.112Z,34.90
2022-12-18T05:12:38.923Z,30.40
2022-12-18T05:32:38.623Z,45.60
2022-12-18T05:52:38.328Z,43.40
2022-12-18T06:12:38.101Z,52.60
2022-12-18T06:32:37.841Z,72.20
2022-12-18T06:52:37.540Z,41.80
2022-12-18T07:12:37.304Z,50.00
2022-12-18T07:32:37.030Z,40.80
2022-12-18T07:52:36.743Z,34.20
2022-12-18T08:12:36.551Z,18.00
2022-12-18T08:32:39.107Z,35.60
2022-12-18T08:52:36.495Z,31.20
2022-12-18T09:12:40.216Z,46.60
2022-12-18T09:32:35.467Z,22.50
2022-12-18T09:52:35.188Z,30.40
2022-12-18T10:12:34.927Z,38.40
2022-12-18T10:32:34.655Z,33.20
2022-12-18T10:52:34.392Z,27.60
2022-12-18T11:12:34.140Z,37.80
2022-12-18T11:32:33.852Z,21.90
2022-12-18T11:52:33.590Z,32.10
2022-12-18T12:12:33.327Z,32.30
2022-12-18T12:32:33.080Z,20.10
2022-12-18T12:52:32.799Z,20.30
2022-12-18T13:12:34.962Z,21.90
2022-12-18T13:32:32.304Z,18.50
2022-12-18T13:52:32.033Z,26.80
2022-12-18T14:12:31.872Z,25.70
2022-12-18T14:32:31.480Z,20.70
2022-12-18T14:52:31.304Z,19.70
2022-12-18T15:12:30.954Z,22.00
2022-12-18T15:50:20.090Z,13.80
2022-12-18T16:10:20.819Z,10.80
2022-12-18T16:30:19.561Z,13.60
2022-12-18T16:50:19.322Z,12.40
2022-12-18T17:10:19.086Z,15.70
2022-12-18T17:30:18.787Z,32.40
2022-12-18T17:50:18.528Z,26.10
2022-12-18T18:10:18.418Z,40.50
2022-12-18T18:30:18.003Z,21.20
2022-12-18T18:50:17.742Z,36.90
2022-12-18T19:10:17.487Z,30.60
2022-12-18T19:30:17.215Z,34.90
2022-12-18T19:50:17.002Z,16.80
2022-12-18T20:10:16.695Z,12.10
2022-12-18T20:30:16.430Z,16.10
2022-12-18T20:50:16.175Z,22.50
2022-12-18T21:10:15.905Z,16.40
2022-12-18T21:30:15.640Z,19.40
2022-12-18T21:50:15.441Z,14.40
2022-12-18T22:10:15.117Z,19.80
2022-12-18T22:30:14.881Z,17.90
2022-12-18T22:50:14.591Z,18.30
2022-12-18T23:10:14.344Z,20.70
2022-12-18T23:30:14.065Z,15.70
2022-12-18T23:50:13.797Z,24.40
